Time;durP1;ratioP1;P1;durP2;ratioP2;P2;SDS_P1;SDS_P2;PMS_P1;PMS_P2;Temp;Humidity;BMP_temperature;BMP_pressure;BME280_temperature;BME280_humidity;BME280_pressure;Samples;Min_cycle;Max_cycle;Signal;HPM_P1;HPM_P2
2023/09/24 00:00:26;;;;;;;17.8;12.1;;;;;;;15.79;89.84;;;;;
2023/09/24 00:11:25;;;;;;;16.2;11.7;;;;;;;15.55;90.07;;;;;
2023/09/24 00:21:24;;;;;;;16.2;11.7;;;;;;;15.43;89.73;;;;;
2023/09/24 00:32:24;;;;;;;16.2;11.7;;;;;;;15.25;89.29;;;;;
2023/09/24 00:42:24;;;;;;;11.9;8.3;;;;;;;15.07;89.36;;;;;
2023/09/24 00:53:24;;;;;;;11.9;8.3;;;;;;;15.02;89.01;;;;;
2023/09/24 01:04:24;;;;;;;12.6;7.3;;;;;;;14.79;88.54;;;;;
2023/09/24 01:14:25;;;;;;;12.6;7.3;;;;;;;14.55;86.58;;;;;
2023/09/24 01:25:24;;;;;;;12.6;7.3;;;;;;;14.38;86.41;;;;;
2023/09/24 01:35:27;;;;;;;6.9;3.3;;;;;;;14.22;86.27;;;;;
2023/09/24 01:45:25;;;;;;;6.9;3.3;;;;;;;14.15;86.78;;;;;
2023/09/24 01:55:24;;;;;;;6.9;3.3;;;;;;;14.04;86.93;;;;;
2023/09/24 02:06:24;;;;;;;5.1;3;;;;;;;13.99;86.86;;;;;
2023/09/24 02:16:24;;;;;;;5.1;3;;;;;;;14.03;87.12;;;;;
2023/09/24 02:26:24;;;;;;;5.1;3;;;;;;;14.06;87.1;;;;;
2023/09/24 02:37:27;;;;;;;3.9;1.9;;;;;;;13.91;88.09;;;;;
2023/09/24 02:47:24;;;;;;;3.9;1.9;;;;;;;13.93;88.58;;;;;
2023/09/24 02:57:24;;;;;;;3.9;1.9;;;;;;;13.82;88.96;;;;;
2023/09/24 03:08:26;;;;;;;5.1;2.7;;;;;;;13.88;89.08;;;;;
2023/09/24 03:19:24;;;;;;;5.1;2.7;;;;;;;13.73;89.28;;;;;
2023/09/24 03:29:24;;;;;;;5.1;2.7;;;;;;;13.62;90.22;;;;;
2023/09/24 03:39:25;;;;;;;5.5;2.3;;;;;;;13.91;89.6;;;;;
2023/09/24 03:50:24;;;;;;;5.5;2.3;;;;;;;13.86;89.06;;;;;
2023/09/24 04:01:24;;;;;;;5.5;2.3;;;;;;;13.82;88.75;;;;;
2023/09/24 04:12:24;;;;;;;4.7;2.9;;;;;;;13.81;88.91;;;;;
2023/09/24 04:23:24;;;;;;;4.7;2.9;;;;;;;13.65;88.6;;;;;
2023/09/24 04:33:24;;;;;;;4.6;2;;;;;;;13.7;88.72;;;;;
2023/09/24 04:44:24;;;;;;;4.6;2;;;;;;;13.66;89.1;;;;;
2023/09/24 04:54:24;;;;;;;4.6;2;;;;;;;13.73;89.46;;;;;
2023/09/24 05:04:25;;;;;;;5;2.4;;;;;;;13.85;89.6;;;;;
2023/09/24 05:15:24;;;;;;;5;2.4;;;;;;;14;89.63;;;;;
2023/09/24 05:26:24;;;;;;;5;2.4;;;;;;;14.11;89.75;;;;;
2023/09/24 05:37:24;;;;;;;5.1;2.8;;;;;;;14.32;89.25;;;;;
2023/09/24 05:47:26;;;;;;;5.1;2.8;;;;;;;14.54;88.62;;;;;
2023/09/24 05:58:24;;;;;;;5.1;2.8;;;;;;;14.58;87.63;;;;;
2023/09/24 06:09:24;;;;;;;7.3;3.9;;;;;;;14.64;87.83;;;;;
2023/09/24 06:20:25;;;;;;;7.3;3.9;;;;;;;14.57;87.61;;;;;
2023/09/24 06:30:24;;;;;;;7.3;3.9;;;;;;;14.73;87.75;;;;;
2023/09/24 06:41:24;;;;;;;6.5;3.3;;;;;;;14.93;83.94;;;;;
2023/09/24 06:52:24;;;;;;;6.5;3.3;;;;;;;15.04;84;;;;;
2023/09/24 07:02:24;;;;;;;4.5;2.2;;;;;;;14.94;83.85;;;;;
2023/09/24 07:13:24;;;;;;;4.5;2.2;;;;;;;15.13;82.87;;;;;
2023/09/24 07:24:24;;;;;;;4.5;2.2;;;;;;;15.35;84.35;;;;;
2023/09/24 07:35:24;;;;;;;5.1;2.5;;;;;;;15.22;85.31;;;;;
2023/09/24 07:45:24;;;;;;;5.1;2.5;;;;;;;15.42;84.49;;;;;
2023/09/24 07:55:24;;;;;;;5.1;2.5;;;;;;;15.54;83.63;;;;;
2023/09/24 08:06:26;;;;;;;5.9;3.2;;;;;;;15.49;83.31;;;;;
2023/09/24 08:16:25;;;;;;;5.9;3.2;;;;;;;15.68;82.91;;;;;
2023/09/24 08:26:24;;;;;;;5.9;3.2;;;;;;;15.58;81.42;;;;;
2023/09/24 08:36:24;;;;;;;5.1;3.1;;;;;;;15.47;83.11;;;;;
2023/09/24 08:47:24;;;;;;;5.1;3.1;;;;;;;15.32;82.19;;;;;
2023/09/24 08:57:24;;;;;;;5.1;3.1;;;;;;;15.11;84.03;;;;;
2023/09/24 09:08:24;;;;;;;4.4;2.5;;;;;;;14.95;86.11;;;;;
2023/09/24 09:18:24;;;;;;;4.4;2.5;;;;;;;15.07;85.35;;;;;
2023/09/24 09:28:24;;;;;;;4.4;2.5;;;;;;;15.38;85.84;;;;;
2023/09/24 09:39:24;;;;;;;4.5;2.4;;;;;;;16.06;83.65;;;;;
2023/09/24 09:49:24;;;;;;;4.5;2.4;;;;;;;16.03;82.38;;;;;
2023/09/24 09:59:24;;;;;;;4.5;2.4;;;;;;;16.69;80.32;;;;;
2023/09/24 10:10:25;;;;;;;5.7;2.7;;;;;;;16.88;77.96;;;;;
2023/09/24 10:21:24;;;;;;;5.7;2.7;;;;;;;16.66;79.81;;;;;
2023/09/24 10:32:25;;;;;;;4.8;2.9;;;;;;;17.02;77.52;;;;;
2023/09/24 10:42:24;;;;;;;4.8;2.9;;;;;;;16.86;78.13;;;;;
2023/09/24 10:53:24;;;;;;;4.8;2.9;;;;;;;17.05;76.76;;;;;
2023/09/24 11:04:24;;;;;;;5;3;;;;;;;17.21;77.69;;;;;
2023/09/24 11:14:25;;;;;;;5;3;;;;;;;17.49;77.54;;;;;
2023/09/24 11:25:24;;;;;;;5;3;;;;;;;17.64;75.78;;;;;
2023/09/24 11:35:25;;;;;;;4;2.4;;;;;;;17.98;75.64;;;;;
2023/09/24 11:46:28;;;;;;;4;2.4;;;;;;;17.9;73.47;;;;;
2023/09/24 11:56:24;;;;;;;4;2.4;;;;;;;17.65;74.57;;;;;
2023/09/24 12:07:26;;;;;;;4.8;2.6;;;;;;;17.73;74.76;;;;;
2023/09/24 12:17:24;;;;;;;4.8;2.6;;;;;;;18.27;75.27;;;;;
2023/09/24 12:27:25;;;;;;;4.8;2.6;;;;;;;17.6;74.9;;;;;
2023/09/24 12:38:24;;;;;;;3.9;2.6;;;;;;;17.69;75.65;;;;;
2023/09/24 12:49:24;;;;;;;3.9;2.6;;;;;;;17.77;75.37;;;;;
2023/09/24 12:59:24;;;;;;;3.9;2.6;;;;;;;17.68;76.02;;;;;
2023/09/24 13:10:24;;;;;;;4.9;3;;;;;;;17.74;76.46;;;;;
2023/09/24 13:20:24;;;;;;;4.9;3;;;;;;;17.58;75.66;;;;;
2023/09/24 13:30:24;;;;;;;4.9;3;;;;;;;17.48;75.25;;;;;
2023/09/24 13:41:24;;;;;;;4.7;2.2;;;;;;;17.27;75.87;;;;;
2023/09/24 13:52:24;;;;;;;4.7;2.2;;;;;;;17.09;77.76;;;;;
2023/09/24 14:03:24;;;;;;;5.6;2.8;;;;;;;16.84;79;;;;;
2023/09/24 14:13:24;;;;;;;5.6;2.8;;;;;;;16.62;80.18;;;;;
2023/09/24 14:23:24;;;;;;;5.6;2.8;;;;;;;16.63;81.28;;;;;
2023/09/24 14:34:24;;;;;;;7.5;3.3;;;;;;;16.76;80.94;;;;;
2023/09/24 14:44:25;;;;;;;7.5;3.3;;;;;;;16.54;80.73;;;;;
2023/09/24 14:54:24;;;;;;;7.5;3.3;;;;;;;16.56;80.69;;;;;
2023/09/24 15:05:24;;;;;;;6.4;3.4;;;;;;;16.82;80.99;;;;;
2023/09/24 15:15:24;;;;;;;6.4;3.4;;;;;;;16.7;79.83;;;;;
2023/09/24 15:26:25;;;;;;;6.4;3.4;;;;;;;16.83;79.15;;;;;
2023/09/24 15:37:24;;;;;;;4.7;2.6;;;;;;;16.68;79.65;;;;;
2023/09/24 15:47:24;;;;;;;4.7;2.6;;;;;;;16.7;79.39;;;;;
2023/09/24 15:57:24;;;;;;;4.7;2.6;;;;;;;16.71;80.29;;;;;
2023/09/24 16:08:25;;;;;;;6.2;2.9;;;;;;;16.75;80.15;;;;;
2023/09/24 16:19:24;;;;;;;6.2;2.9;;;;;;;16.5;81.31;;;;;
2023/09/24 16:29:25;;;;;;;6.2;2.9;;;;;;;16.38;81.72;;;;;
2023/09/24 16:40:24;;;;;;;5.3;3;;;;;;;16.01;83.82;;;;;
2023/09/24 16:50:25;;;;;;;5.3;3;;;;;;;15.98;83.68;;;;;
2023/09/24 17:01:25;;;;;;;5.3;3;;;;;;;15.83;84.48;;;;;
2023/09/24 17:12:25;;;;;;;8.6;3.9;;;;;;;15.8;84.82;;;;;
2023/09/24 17:23:25;;;;;;;8.6;3.9;;;;;;;15.74;85.06;;;;;
2023/09/24 17:34:25;;;;;;;15.7;10.8;;;;;;;15.6;85.93;;;;;
2023/09/24 17:45:25;;;;;;;15.7;10.8;;;;;;;15.65;86.02;;;;;
2023/09/24 17:56:25;;;;;;;15.7;10.8;;;;;;;15.59;86.76;;;;;
2023/09/24 18:07:25;;;;;;;7.8;4.7;;;;;;;15.6;86.97;;;;;
2023/09/24 18:17:25;;;;;;;7.8;4.7;;;;;;;15.64;86.66;;;;;
2023/09/24 18:27:28;;;;;;;7.8;4.7;;;;;;;15.6;87.14;;;;;
2023/09/24 18:38:25;;;;;;;7.8;4.6;;;;;;;15.64;87.1;;;;;
2023/09/24 18:49:25;;;;;;;7.8;4.6;;;;;;;15.59;86.99;;;;;
2023/09/24 18:59:25;;;;;;;7.8;4.6;;;;;;;15.52;86.31;;;;;
2023/09/24 19:09:25;;;;;;;6.3;4.2;;;;;;;15.26;85.81;;;;;
2023/09/24 19:19:25;;;;;;;6.3;4.2;;;;;;;15.27;86.11;;;;;
2023/09/24 19:30:25;;;;;;;6.3;4.2;;;;;;;14.85;87.99;;;;;
2023/09/24 19:40:25;;;;;;;6.2;3.9;;;;;;;14.63;89.26;;;;;
2023/09/24 19:50:25;;;;;;;6.2;3.9;;;;;;;14.84;89.05;;;;;
2023/09/24 20:01:25;;;;;;;6.2;3.9;;;;;;;14.81;89.03;;;;;
2023/09/24 20:11:25;;;;;;;7.8;4.6;;;;;;;14.8;89.92;;;;;
2023/09/24 20:21:25;;;;;;;7.8;4.6;;;;;;;14.83;89.53;;;;;
2023/09/24 20:32:26;;;;;;;7.8;4.6;;;;;;;14.99;89.33;;;;;
2023/09/24 20:43:25;;;;;;;7.5;4.9;;;;;;;15.08;88.85;;;;;
2023/09/24 20:53:25;;;;;;;7.5;4.9;;;;;;;14.98;88.92;;;;;
2023/09/24 21:04:25;;;;;;;7.2;4.3;;;;;;;14.88;89.82;;;;;
2023/09/24 21:14:25;;;;;;;7.2;4.3;;;;;;;15.21;88.87;;;;;
2023/09/24 21:25:25;;;;;;;7.2;4.3;;;;;;;15.17;88.43;;;;;
2023/09/24 21:36:25;;;;;;;10.4;5.4;;;;;;;15.1;88.74;;;;;
2023/09/24 21:46:25;;;;;;;10.4;5.4;;;;;;;14.76;90.03;;;;;
2023/09/24 21:57:25;;;;;;;10.4;5.4;;;;;;;14.97;89.36;;;;;
2023/09/24 22:08:25;;;;;;;11.5;5.9;;;;;;;14.77;90.09;;;;;
2023/09/24 22:18:25;;;;;;;11.5;5.9;;;;;;;14.88;89.6;;;;;
2023/09/24 22:29:25;;;;;;;11.5;5.9;;;;;;;14.93;89.76;;;;;
2023/09/24 22:39:25;;;;;;;8.8;5.8;;;;;;;14.9;89.85;;;;;
2023/09/24 22:49:25;;;;;;;8.8;5.8;;;;;;;15;89.5;;;;;
2023/09/24 22:59:25;;;;;;;8.8;5.8;;;;;;;14.78;90.25;;;;;
2023/09/24 23:10:25;;;;;;;8.1;5.3;;;;;;;14.69;90.64;;;;;
2023/09/24 23:21:25;;;;;;;8.1;5.3;;;;;;;14.73;90.5;;;;;
2023/09/24 23:31:25;;;;;;;8.1;5.3;;;;;;;14.67;90.44;;;;;
2023/09/24 23:41:26;;;;;;;8.5;6;;;;;;;14.7;90.56;;;;;
2023/09/24 23:51:25;;;;;;;8.5;6;;;;;;;14.87;90.36;;;;;
